createdAt,value
2023-12-22T00:00:37.776Z,0.75
2023-12-22T00:03:06.662Z,0.55
2023-12-22T00:05:34.914Z,0.68
2023-12-22T00:08:03.208Z,0.50
2023-12-22T00:10:31.466Z,0.57
2023-12-22T00:13:01.086Z,0.70
2023-12-22T00:15:29.281Z,0.60
2023-12-22T00:17:57.516Z,0.68
2023-12-22T00:20:25.758Z,0.63
2023-12-22T00:22:53.991Z,0.88
2023-12-22T00:25:22.190Z,0.70
2023-12-22T00:27:50.566Z,0.77
2023-12-22T00:30:20.328Z,0.60
2023-12-22T00:32:48.825Z,0.60
2023-12-22T00:35:17.095Z,0.70
2023-12-22T00:37:45.238Z,0.90
2023-12-22T00:40:13.879Z,0.73
2023-12-22T00:42:42.064Z,1.00
2023-12-22T00:45:10.857Z,0.90
2023-12-22T00:47:40.511Z,0.60
2023-12-22T00:50:09.417Z,0.90
2023-12-22T00:52:37.855Z,0.40
2023-12-22T00:55:06.768Z,0.60
2023-12-22T00:57:38.220Z,0.60
2023-12-22T01:02:38.450Z,0.47
2023-12-22T01:05:09.016Z,0.70
2023-12-22T01:07:37.470Z,0.73
2023-12-22T01:10:06.486Z,0.70
2023-12-22T01:12:34.674Z,1.30
2023-12-22T01:15:03.282Z,0.90
2023-12-22T01:17:31.610Z,1.00
2023-12-22T01:20:00.064Z,0.80
2023-12-22T01:22:29.874Z,0.60
2023-12-22T01:24:58.132Z,0.90
2023-12-22T01:27:26.384Z,1.05
2023-12-22T01:29:55.205Z,1.55
2023-12-22T01:32:23.284Z,1.20
2023-12-22T01:34:51.508Z,2.15
2023-12-22T01:37:21.417Z,1.20
2023-12-22T01:39:50.977Z,2.83
2023-12-22T01:42:21.756Z,0.95
2023-12-22T01:44:49.979Z,1.30
2023-12-22T01:47:18.226Z,0.90
2023-12-22T01:49:46.472Z,1.13
2023-12-22T01:52:14.827Z,1.13
2023-12-22T01:54:43.674Z,1.33
2023-12-22T01:57:18.755Z,1.08
2023-12-22T01:59:47.634Z,1.02
2023-12-22T02:02:16.016Z,1.00
2023-12-22T02:04:44.808Z,1.25
2023-12-22T02:07:16.504Z,1.40
2023-12-22T02:09:44.669Z,1.00
2023-12-22T02:12:14.262Z,1.58
2023-12-22T02:14:42.538Z,1.25
2023-12-22T02:17:18.755Z,1.33
2023-12-22T02:19:51.350Z,1.52
2023-12-22T02:22:19.605Z,1.20
2023-12-22T02:24:51.335Z,1.70
2023-12-22T02:27:36.147Z,1.35
2023-12-22T02:30:10.966Z,2.25
2023-12-22T02:32:43.933Z,1.83
2023-12-22T02:35:16.915Z,2.28
2023-12-22T02:37:49.466Z,1.50
2023-12-22T02:40:20.697Z,1.38
2023-12-22T02:42:49.163Z,1.85
2023-12-22T02:45:18.367Z,2.30
2023-12-22T02:47:47.476Z,2.20
2023-12-22T02:50:17.186Z,1.98
2023-12-22T02:52:45.726Z,2.10
2023-12-22T02:55:14.307Z,2.60
2023-12-22T02:57:43.969Z,2.30
2023-12-22T03:00:13.185Z,2.30
2023-12-22T03:02:41.477Z,3.00
2023-12-22T03:05:09.905Z,3.33
2023-12-22T03:07:38.256Z,2.20
2023-12-22T03:10:06.939Z,2.72
2023-12-22T03:12:35.093Z,2.28
2023-12-22T03:15:05.110Z,2.92
2023-12-22T03:17:33.372Z,2.20
2023-12-22T03:20:01.627Z,2.53
2023-12-22T03:22:32.829Z,3.63
2023-12-22T03:25:01.167Z,2.05
2023-12-22T03:27:31.937Z,2.05
2023-12-22T03:30:05.008Z,2.20
2023-12-22T03:32:33.233Z,2.17
2023-12-22T03:35:04.312Z,2.65
2023-12-22T03:37:32.581Z,2.00
2023-12-22T03:40:00.781Z,2.80
2023-12-22T03:42:29.052Z,2.45
2023-12-22T03:44:57.254Z,1.90
2023-12-22T03:47:26.996Z,2.97
2023-12-22T03:49:55.320Z,3.28
2023-12-22T03:52:23.591Z,2.50
2023-12-22T03:54:52.127Z,3.17
2023-12-22T03:57:20.228Z,2.20
2023-12-22T03:59:48.467Z,3.15
2023-12-22T04:02:16.987Z,2.40
2023-12-22T04:04:46.641Z,3.13
2023-12-22T04:07:15.479Z,2.40
2023-12-22T04:09:45.036Z,2.67
2023-12-22T04:12:13.405Z,2.72
2023-12-22T04:14:41.591Z,4.30
2023-12-22T04:17:11.402Z,3.05
2023-12-22T04:19:39.895Z,2.40
2023-12-22T04:22:09.540Z,2.92
2023-12-22T04:24:37.747Z,2.85
2023-12-22T04:27:06.333Z,2.38
2023-12-22T04:29:37.609Z,2.45
2023-12-22T04:32:06.111Z,2.55
2023-12-22T04:34:35.434Z,2.13
2023-12-22T04:37:03.740Z,3.88
2023-12-22T04:39:33.296Z,2.40
2023-12-22T04:42:01.954Z,2.30
2023-12-22T04:44:30.183Z,2.22
2023-12-22T04:46:58.448Z,2.63
2023-12-22T04:49:26.882Z,2.88
2023-12-22T04:51:55.146Z,1.80
2023-12-22T04:54:23.582Z,3.00
2023-12-22T04:56:53.285Z,3.17
2023-12-22T04:59:21.731Z,3.65
2023-12-22T05:01:49.955Z,2.25
2023-12-22T05:04:18.751Z,2.65
2023-12-22T05:06:47.783Z,2.33
2023-12-22T05:09:16.000Z,2.22
2023-12-22T05:11:46.976Z,2.75
2023-12-22T05:14:16.713Z,2.00
2023-12-22T05:16:47.740Z,2.05
2023-12-22T05:19:16.762Z,1.87
2023-12-22T05:21:45.036Z,1.92
2023-12-22T05:24:13.490Z,3.03
2023-12-22T05:26:44.093Z,2.00
2023-12-22T05:29:14.830Z,1.95
2023-12-22T05:31:48.265Z,1.58
2023-12-22T05:34:16.887Z,2.03
2023-12-22T05:36:45.252Z,1.85
2023-12-22T05:39:13.526Z,2.35
2023-12-22T05:41:42.201Z,1.85
2023-12-22T05:44:10.680Z,2.03
2023-12-22T05:46:40.270Z,1.13
2023-12-22T05:49:10.035Z,1.33
2023-12-22T05:51:41.849Z,2.17
2023-12-22T05:54:11.682Z,1.80
2023-12-22T05:56:40.073Z,1.33
2023-12-22T05:59:08.292Z,1.83
2023-12-22T06:01:36.493Z,1.83
2023-12-22T06:04:04.869Z,2.13
2023-12-22T06:06:34.398Z,2.20
2023-12-22T06:09:02.644Z,2.42
2023-12-22T06:11:31.934Z,1.27
2023-12-22T06:14:00.472Z,1.83
2023-12-22T06:16:28.889Z,2.17
2023-12-22T06:18:57.316Z,1.98
2023-12-22T06:21:26.168Z,2.20
2023-12-22T06:23:55.898Z,1.60
2023-12-22T06:26:26.897Z,2.20
2023-12-22T06:28:55.709Z,2.30
2023-12-22T06:31:24.634Z,2.20
2023-12-22T06:33:53.956Z,2.25
2023-12-22T06:36:24.486Z,1.45
2023-12-22T06:38:53.280Z,3.55
2023-12-22T06:41:27.514Z,1.98
2023-12-22T06:43:57.421Z,1.77
2023-12-22T06:46:28.232Z,2.47
2023-12-22T06:48:57.888Z,2.45
2023-12-22T06:51:28.315Z,2.38
2023-12-22T06:53:57.569Z,2.88
2023-12-22T06:56:29.006Z,3.25
2023-12-22T07:01:28.350Z,2.80
2023-12-22T07:03:57.497Z,1.98
2023-12-22T07:06:27.366Z,2.60
2023-12-22T07:09:16.763Z,3.50
2023-12-22T07:11:48.685Z,2.60
2023-12-22T07:14:17.579Z,3.20
2023-12-22T07:16:45.972Z,2.35
2023-12-22T07:19:14.812Z,2.45
2023-12-22T07:21:45.492Z,2.95
2023-12-22T07:24:16.511Z,3.03
2023-12-22T07:26:47.156Z,3.13
2023-12-22T07:29:15.351Z,2.83
2023-12-22T07:31:44.597Z,2.42
2023-12-22T07:34:14.136Z,3.63
2023-12-22T07:36:47.888Z,3.17
2023-12-22T07:39:20.031Z,3.40
2023-12-22T07:41:49.721Z,4.03
2023-12-22T07:44:18.040Z,3.80
2023-12-22T07:46:47.645Z,2.38
2023-12-22T07:49:19.452Z,3.60
2023-12-22T07:51:47.687Z,2.75
2023-12-22T07:54:15.930Z,3.33
2023-12-22T07:56:44.325Z,2.75
2023-12-22T07:59:23.577Z,3.05
2023-12-22T08:01:59.636Z,3.53
2023-12-22T08:04:28.130Z,3.30
2023-12-22T08:06:56.452Z,3.22
2023-12-22T08:09:24.790Z,3.60
2023-12-22T08:11:58.341Z,4.03
2023-12-22T08:14:28.127Z,3.40
2023-12-22T08:16:56.340Z,3.78
2023-12-22T08:19:26.344Z,3.47
2023-12-22T08:21:56.950Z,2.20
2023-12-22T08:24:25.894Z,3.45
2023-12-22T08:26:54.304Z,3.90
2023-12-22T08:29:22.531Z,3.03
2023-12-22T08:31:52.447Z,3.80
2023-12-22T08:34:20.826Z,3.17
2023-12-22T08:36:48.928Z,3.88
2023-12-22T08:39:17.308Z,3.90
2023-12-22T08:41:46.007Z,3.60
2023-12-22T08:44:16.176Z,3.75
2023-12-22T08:46:45.029Z,3.05
2023-12-22T08:49:14.805Z,4.18
2023-12-22T08:51:44.313Z,2.72
2023-12-22T08:54:12.796Z,2.50
2023-12-22T08:56:40.932Z,2.95
2023-12-22T08:59:10.407Z,2.85
2023-12-22T09:01:38.772Z,2.90
2023-12-22T09:04:09.774Z,3.05
2023-12-22T09:06:40.617Z,2.80
2023-12-22T09:09:08.919Z,4.00
2023-12-22T09:11:37.547Z,1.92
2023-12-22T09:14:10.918Z,2.42
2023-12-22T09:16:39.978Z,2.80
2023-12-22T09:19:09.430Z,3.30
2023-12-22T09:21:37.772Z,2.88
2023-12-22T09:24:07.928Z,2.25
2023-12-22T09:26:36.302Z,3.67
2023-12-22T09:29:04.682Z,3.25
2023-12-22T09:31:34.118Z,3.38
2023-12-22T09:34:04.276Z,3.05
2023-12-22T09:36:32.802Z,3.33
2023-12-22T09:39:01.309Z,3.08
2023-12-22T09:41:31.162Z,2.72
2023-12-22T09:44:02.900Z,3.28
2023-12-22T09:46:32.840Z,3.25
2023-12-22T09:49:02.800Z,2.22
2023-12-22T09:51:32.743Z,3.13
2023-12-22T09:54:03.925Z,2.22
2023-12-22T09:56:35.836Z,2.22
2023-12-22T09:59:04.178Z,3.05
2023-12-22T10:01:33.489Z,2.67
2023-12-22T10:04:02.206Z,3.38
2023-12-22T10:06:31.231Z,2.45
2023-12-22T10:08:59.702Z,2.38
2023-12-22T10:11:29.463Z,2.40
2023-12-22T10:13:59.337Z,2.30
2023-12-22T10:16:28.607Z,2.80
2023-12-22T10:18:57.383Z,2.30
2023-12-22T10:21:25.587Z,2.50
2023-12-22T10:23:54.028Z,3.03
2023-12-22T10:26:22.706Z,2.53
2023-12-22T10:28:51.885Z,2.70
2023-12-22T10:31:21.504Z,2.88
2023-12-22T10:33:49.822Z,2.90
2023-12-22T10:36:18.038Z,2.30
2023-12-22T10:38:47.484Z,2.95
2023-12-22T10:41:16.019Z,2.45
2023-12-22T10:43:44.861Z,2.30
2023-12-22T10:46:14.506Z,2.00
2023-12-22T10:48:48.580Z,2.90
2023-12-22T10:51:17.999Z,3.88
2023-12-22T10:53:46.824Z,2.50
2023-12-22T10:56:15.321Z,2.83
2023-12-22T10:58:46.850Z,2.35
2023-12-22T11:01:17.106Z,2.65
2023-12-22T11:03:50.875Z,3.55
2023-12-22T11:06:25.975Z,3.10
2023-12-22T11:08:55.466Z,2.90
2023-12-22T11:11:30.790Z,2.78
2023-12-22T11:13:59.699Z,3.42
2023-12-22T11:16:31.262Z,2.30
2023-12-22T11:19:01.902Z,3.80
2023-12-22T11:21:31.045Z,3.00
2023-12-22T11:23:59.745Z,2.47
2023-12-22T11:26:28.287Z,2.78
2023-12-22T11:28:57.523Z,2.75
2023-12-22T11:31:28.267Z,1.95
2023-12-22T11:34:04.445Z,2.47
2023-12-22T11:36:41.208Z,2.60
2023-12-22T11:39:09.694Z,2.50
2023-12-22T11:41:39.823Z,3.05
2023-12-22T11:44:09.038Z,2.45
2023-12-22T11:46:40.319Z,2.60
2023-12-22T11:49:09.038Z,2.70
2023-12-22T11:51:37.813Z,2.83
2023-12-22T11:54:46.116Z,2.97
2023-12-22T11:57:35.847Z,2.25
2023-12-22T12:00:09.074Z,2.40
2023-12-22T12:02:39.118Z,2.20
2023-12-22T12:05:10.212Z,1.77
2023-12-22T12:07:45.892Z,2.08
2023-12-22T12:10:55.688Z,3.00
2023-12-22T12:13:27.893Z,6.18
2023-12-22T12:15:57.952Z,4.40
2023-12-22T12:18:27.219Z,2.33
2023-12-22T12:20:55.748Z,2.13
2023-12-22T12:23:29.103Z,1.88
2023-12-22T12:25:59.230Z,1.83
2023-12-22T12:28:27.281Z,2.72
2023-12-22T12:31:01.703Z,2.60
2023-12-22T12:33:31.001Z,2.95
2023-12-22T12:36:01.010Z,2.65
2023-12-22T12:38:46.871Z,2.60
2023-12-22T12:41:20.628Z,2.75
2023-12-22T12:43:50.636Z,1.90
2023-12-22T12:46:18.871Z,1.80
2023-12-22T12:48:47.308Z,2.60
2023-12-22T12:51:15.632Z,2.30
2023-12-22T12:53:43.910Z,2.00
2023-12-22T12:56:15.412Z,1.52
2023-12-22T13:01:25.868Z,1.55
2023-12-22T13:03:59.305Z,2.05
2023-12-22T13:06:27.553Z,2.45
2023-12-22T13:08:55.947Z,2.05
2023-12-22T13:11:25.438Z,2.47
2023-12-22T13:13:55.122Z,1.98
2023-12-22T13:16:27.042Z,2.42
2023-12-22T13:18:56.114Z,1.63
2023-12-22T13:21:25.157Z,1.42
2023-12-22T13:24:11.773Z,1.95
2023-12-22T13:26:40.566Z,2.00
2023-12-22T13:29:11.230Z,1.73
2023-12-22T13:31:40.721Z,2.20
2023-12-22T13:34:11.668Z,3.40
2023-12-22T13:36:40.281Z,1.92
2023-12-22T13:39:09.381Z,2.38
2023-12-22T13:41:40.311Z,2.40
2023-12-22T13:44:10.779Z,2.35
2023-12-22T13:46:42.256Z,2.60
2023-12-22T13:51:43.331Z,1.73
2023-12-22T13:54:11.693Z,1.45
2023-12-22T13:56:43.307Z,2.20
2023-12-22T13:59:13.767Z,2.05
2023-12-22T14:01:43.489Z,2.22
2023-12-22T14:04:12.008Z,1.98
2023-12-22T14:06:42.695Z,1.52
2023-12-22T14:09:14.809Z,1.40
2023-12-22T14:11:53.187Z,1.67
2023-12-22T14:14:27.075Z,1.85
2023-12-22T14:16:55.352Z,1.75
2023-12-22T14:19:23.696Z,1.90
2023-12-22T14:21:51.955Z,2.00
2023-12-22T14:24:20.773Z,2.20
2023-12-22T14:26:56.508Z,2.08
2023-12-22T14:29:26.482Z,2.08
2023-12-22T14:31:54.812Z,2.70
2023-12-22T14:34:23.245Z,2.20
2023-12-22T14:36:51.985Z,2.13
2023-12-22T14:39:20.283Z,2.58
2023-12-22T14:41:48.600Z,2.97
2023-12-22T14:44:16.942Z,3.92
2023-12-22T14:46:47.185Z,2.70
2023-12-22T14:49:15.568Z,2.80
2023-12-22T14:51:43.920Z,2.25
2023-12-22T14:54:12.973Z,2.00
2023-12-22T14:56:42.783Z,1.77
2023-12-22T14:59:11.749Z,1.85
2023-12-22T15:01:40.178Z,3.00
2023-12-22T15:04:10.271Z,2.38
2023-12-22T15:06:40.333Z,2.95
2023-12-22T15:09:08.667Z,4.40
2023-12-22T15:11:42.513Z,4.32
2023-12-22T15:14:11.192Z,1.20
2023-12-22T15:16:42.380Z,5.35
2023-12-22T15:19:12.351Z,8.30
2023-12-22T15:21:41.266Z,3.95
2023-12-22T15:24:09.578Z,2.53
2023-12-22T15:26:37.990Z,2.83
2023-12-22T15:29:06.583Z,2.20
2023-12-22T15:31:37.399Z,5.75
2023-12-22T15:34:07.165Z,1.77
2023-12-22T15:36:37.440Z,2.55
2023-12-22T15:39:05.839Z,4.28
2023-12-22T15:41:34.196Z,2.47
2023-12-22T15:44:02.561Z,2.38
2023-12-22T15:46:30.714Z,2.85
2023-12-22T15:48:59.644Z,2.75
2023-12-22T15:51:27.914Z,1.90
2023-12-22T15:53:57.496Z,1.90
2023-12-22T15:56:25.825Z,1.83
2023-12-22T15:58:54.159Z,1.38
2023-12-22T16:01:25.404Z,2.15
2023-12-22T16:03:53.582Z,1.85
2023-12-22T16:06:22.131Z,1.95
2023-12-22T16:08:50.573Z,2.03
2023-12-22T16:11:21.729Z,1.67
2023-12-22T16:13:51.982Z,4.05
2023-12-22T16:16:21.019Z,2.50
2023-12-22T16:18:49.623Z,3.63
2023-12-22T16:21:18.293Z,2.33
2023-12-22T16:23:46.849Z,2.80
2023-12-22T16:26:15.333Z,2.65
2023-12-22T16:28:45.000Z,3.17
2023-12-22T16:31:14.269Z,3.25
2023-12-22T16:33:42.794Z,2.95
2023-12-22T16:36:11.912Z,2.20
2023-12-22T16:38:40.411Z,3.08
2023-12-22T16:41:08.806Z,2.58
2023-12-22T16:43:37.275Z,3.53
2023-12-22T16:46:10.062Z,2.72
2023-12-22T16:48:38.495Z,1.75
2023-12-22T16:51:07.094Z,2.92
2023-12-22T16:53:35.467Z,2.38
2023-12-22T16:56:03.888Z,2.55
2023-12-22T16:58:41.303Z,2.35
2023-12-22T17:01:22.621Z,2.78
2023-12-22T17:03:59.920Z,2.28
2023-12-22T17:06:28.575Z,2.60
2023-12-22T17:08:57.577Z,2.55
2023-12-22T17:11:25.941Z,2.53
2023-12-22T17:13:54.247Z,2.50
2023-12-22T17:16:24.214Z,2.88
2023-12-22T17:18:53.189Z,2.20
2023-12-22T17:21:21.488Z,2.70
2023-12-22T17:23:52.658Z,3.55
2023-12-22T17:26:20.989Z,3.30
2023-12-22T17:28:50.429Z,2.95
2023-12-22T17:31:19.580Z,3.63
2023-12-22T17:33:49.663Z,4.38
2023-12-22T17:36:26.194Z,4.05
2023-12-22T17:38:54.712Z,4.13
2023-12-22T17:41:29.317Z,4.53
2023-12-22T17:43:59.398Z,3.30
2023-12-22T17:46:27.634Z,3.70
2023-12-22T17:48:57.561Z,3.40
2023-12-22T17:51:25.967Z,3.97
2023-12-22T17:53:54.177Z,3.05
2023-12-22T17:56:51.172Z,3.38
2023-12-22T17:59:19.512Z,4.00
2023-12-22T18:01:49.633Z,4.10
2023-12-22T18:04:19.529Z,3.20
2023-12-22T18:06:48.330Z,3.67
2023-12-22T18:09:16.687Z,2.75
2023-12-22T18:11:46.492Z,3.80
2023-12-22T18:14:15.127Z,3.72
2023-12-22T18:16:44.908Z,3.95
2023-12-22T18:19:15.785Z,3.45
2023-12-22T18:21:45.349Z,3.60
2023-12-22T18:24:14.387Z,3.75
2023-12-22T18:26:42.610Z,3.00
2023-12-22T18:29:10.916Z,3.08
2023-12-22T18:31:39.485Z,3.15
2023-12-22T18:34:08.950Z,5.97
2023-12-22T18:36:37.294Z,3.75
2023-12-22T18:39:07.056Z,2.72
2023-12-22T18:41:35.371Z,3.55
2023-12-22T18:44:04.581Z,3.40
2023-12-22T18:46:34.608Z,5.05
2023-12-22T18:49:02.877Z,5.40
2023-12-22T18:51:31.171Z,3.50
2023-12-22T18:54:00.806Z,3.33
2023-12-22T18:56:30.404Z,3.40
2023-12-22T18:58:58.953Z,4.68
2023-12-22T19:01:40.254Z,6.03
2023-12-22T19:06:47.634Z,4.18
2023-12-22T19:09:15.922Z,3.47
2023-12-22T19:11:48.159Z,2.97
2023-12-22T19:14:16.499Z,2.60
2023-12-22T19:16:44.780Z,3.13
2023-12-22T19:21:49.428Z,2.95
2023-12-22T19:24:17.757Z,3.00
2023-12-22T19:26:48.761Z,3.42
2023-12-22T19:29:17.532Z,2.65
2023-12-22T19:31:45.802Z,3.10
2023-12-22T19:34:14.030Z,3.38
2023-12-22T19:36:42.902Z,2.70
2023-12-22T19:39:11.258Z,2.88
2023-12-22T19:41:39.491Z,3.13
2023-12-22T19:44:09.445Z,2.55
2023-12-22T19:46:37.697Z,4.95
2023-12-22T19:49:09.171Z,2.78
2023-12-22T19:54:11.638Z,3.85
2023-12-22T19:56:42.913Z,2.70
2023-12-22T19:59:12.613Z,2.38
2023-12-22T20:01:40.906Z,2.35
2023-12-22T20:04:09.187Z,2.72
2023-12-22T20:06:37.460Z,3.05
2023-12-22T20:09:08.035Z,1.73
2023-12-22T20:11:36.449Z,2.20
2023-12-22T20:14:04.821Z,2.80
2023-12-22T20:16:37.142Z,2.97
2023-12-22T20:19:05.554Z,3.40
2023-12-22T20:21:33.956Z,3.90
2023-12-22T20:24:02.359Z,2.90
2023-12-22T20:26:31.164Z,3.60
2023-12-22T20:28:59.399Z,3.63
2023-12-22T20:31:27.756Z,4.00
2023-12-22T20:33:57.258Z,5.10
2023-12-22T20:36:25.453Z,3.97
2023-12-22T20:38:53.704Z,2.72
2023-12-22T20:41:22.091Z,5.20
2023-12-22T20:43:51.220Z,6.30
2023-12-22T20:46:19.712Z,5.43
2023-12-22T20:48:48.419Z,4.63
2023-12-22T20:51:18.434Z,3.33
2023-12-22T20:53:46.670Z,4.18
2023-12-22T20:56:21.834Z,4.45
2023-12-22T20:58:50.365Z,2.97
2023-12-22T21:01:19.154Z,9.82
2023-12-22T21:03:48.735Z,3.90
2023-12-22T21:06:18.617Z,5.68
2023-12-22T21:08:49.689Z,2.88
2023-12-22T21:11:22.690Z,4.05
2023-12-22T21:13:51.181Z,3.92
2023-12-22T21:16:20.558Z,5.53
2023-12-22T21:18:49.068Z,3.78
2023-12-22T21:21:19.374Z,3.78
2023-12-22T21:23:47.483Z,5.10
2023-12-22T21:26:22.634Z,5.35
2023-12-22T21:28:52.879Z,5.32
2023-12-22T21:31:21.830Z,4.60
2023-12-22T21:33:50.382Z,5.20
2023-12-22T21:36:26.013Z,5.55
2023-12-22T21:38:55.410Z,5.28
2023-12-22T21:41:24.712Z,3.60
2023-12-22T21:43:53.020Z,3.30
2023-12-22T21:46:22.866Z,7.10
2023-12-22T21:48:51.094Z,3.33
2023-12-22T21:51:24.885Z,5.60
2023-12-22T21:53:54.853Z,4.30
2023-12-22T21:56:23.498Z,2.83
2023-12-22T21:58:51.717Z,4.22
2023-12-22T22:01:20.931Z,3.38
2023-12-22T22:03:49.171Z,3.63
2023-12-22T22:06:20.523Z,2.63
2023-12-22T22:08:48.675Z,2.95
2023-12-22T22:11:19.244Z,2.40
2023-12-22T22:13:47.624Z,3.23
2023-12-22T22:16:15.808Z,2.45
2023-12-22T22:18:44.425Z,2.35
2023-12-22T22:21:14.248Z,2.60
2023-12-22T22:23:42.459Z,2.22
2023-12-22T22:26:11.344Z,3.15
2023-12-22T22:28:41.348Z,2.03
2023-12-22T22:31:09.759Z,3.03
2023-12-22T22:33:38.098Z,2.47
2023-12-22T22:36:07.082Z,2.55
2023-12-22T22:38:35.214Z,1.83
2023-12-22T22:41:03.786Z,2.13
2023-12-22T22:43:32.147Z,1.90
2023-12-22T22:46:03.403Z,1.95
2023-12-22T22:48:31.889Z,2.15
2023-12-22T22:51:00.099Z,2.38
2023-12-22T22:53:28.340Z,1.55
2023-12-22T22:55:56.537Z,1.63
2023-12-22T22:58:24.913Z,2.22
2023-12-22T23:00:53.347Z,1.52
2023-12-22T23:03:23.680Z,1.42
2023-12-22T23:05:52.419Z,1.70
2023-12-22T23:08:20.661Z,1.67
2023-12-22T23:10:49.042Z,1.75
2023-12-22T23:13:17.685Z,1.33
2023-12-22T23:15:46.063Z,1.35
2023-12-22T23:18:14.498Z,1.70
2023-12-22T23:20:44.609Z,1.42
2023-12-22T23:23:12.889Z,2.70
2023-12-22T23:25:41.784Z,1.45
2023-12-22T23:28:09.988Z,1.40
2023-12-22T23:30:38.200Z,1.50
2023-12-22T23:33:06.777Z,1.20
2023-12-22T23:35:35.114Z,1.60
2023-12-22T23:38:05.210Z,1.20
2023-12-22T23:40:33.530Z,1.20
2023-12-22T23:43:01.891Z,0.85
2023-12-22T23:45:30.281Z,1.00
2023-12-22T23:47:59.377Z,0.95
2023-12-22T23:50:28.059Z,0.95
2023-12-22T23:52:56.223Z,0.60
2023-12-22T23:55:26.300Z,0.82
2023-12-22T23:57:57.507Z,1.00
